sensor_id;sensor_type;location;lat;lon;timestamp;pressure;altitude;pressure_sealevel;temperature;humidity
81230;BME280;70701;44.452;18.652;2023-12-29T00:01:58;99786.84;;;0.13;93.14
81230;BME280;70701;44.452;18.652;2023-12-29T00:04:27;99787.34;;;0.03;92.71
81230;BME280;70701;44.452;18.652;2023-12-29T00:06:53;99779.28;;;-0.06;92.41
81230;BME280;70701;44.452;18.652;2023-12-29T00:09:18;99776.22;;;-0.17;92.82
81230;BME280;70701;44.452;18.652;2023-12-29T00:11:47;99777.59;;;-0.23;92.78
81230;BME280;70701;44.452;18.652;2023-12-29T00:14:13;99779.88;;;-0.25;93.11
81230;BME280;70701;44.452;18.652;2023-12-29T00:16:39;99775.09;;;-0.28;92.72
81230;BME280;70701;44.452;18.652;2023-12-29T00:19:04;99761.41;;;-0.28;92.48
81230;BME280;70701;44.452;18.652;2023-12-29T00:21:30;99771.88;;;-0.18;91.91
81230;BME280;70701;44.452;18.652;2023-12-29T00:23:56;99778.25;;;-0.02;91.84
81230;BME280;70701;44.452;18.652;2023-12-29T00:26:22;99763.88;;;-0.11;91.60
81230;BME280;70701;44.452;18.652;2023-12-29T00:28:54;99765.47;;;-0.10;92.48
81230;BME280;70701;44.452;18.652;2023-12-29T00:31:19;99775.75;;;-0.07;92.09
81230;BME280;70701;44.452;18.652;2023-12-29T00:33:45;99772.00;;;-0.27;91.47
81230;BME280;70701;44.452;18.652;2023-12-29T00:36:17;99774.13;;;-0.08;92.08
81230;BME280;70701;44.452;18.652;2023-12-29T00:38:43;99759.94;;;-0.26;92.37
81230;BME280;70701;44.452;18.652;2023-12-29T00:41:09;99755.47;;;-0.30;92.93
81230;BME280;70701;44.452;18.652;2023-12-29T00:43:35;99759.41;;;-0.56;93.43
81230;BME280;70701;44.452;18.652;2023-12-29T00:46:02;99770.91;;;0.03;93.69
81230;BME280;70701;44.452;18.652;2023-12-29T00:48:30;99776.50;;;0.06;91.46
81230;BME280;70701;44.452;18.652;2023-12-29T00:50:56;99771.84;;;-0.06;90.39
81230;BME280;70701;44.452;18.652;2023-12-29T00:53:21;99773.69;;;-0.10;90.63
81230;BME280;70701;44.452;18.652;2023-12-29T00:55:47;99775.88;;;-0.15;90.68
81230;BME280;70701;44.452;18.652;2023-12-29T00:58:13;99777.16;;;-0.25;91.10
81230;BME280;70701;44.452;18.652;2023-12-29T01:00:39;99760.41;;;-0.36;91.32
81230;BME280;70701;44.452;18.652;2023-12-29T01:03:05;99769.44;;;-0.35;92.14
81230;BME280;70701;44.452;18.652;2023-12-29T01:05:31;99778.09;;;-0.33;91.88
81230;BME280;70701;44.452;18.652;2023-12-29T01:07:56;99786.41;;;-0.30;91.58
81230;BME280;70701;44.452;18.652;2023-12-29T01:10:22;99777.94;;;-0.25;91.05
81230;BME280;70701;44.452;18.652;2023-12-29T01:12:48;99785.84;;;-0.35;91.33
81230;BME280;70701;44.452;18.652;2023-12-29T01:15:14;99779.00;;;-0.42;91.17
81230;BME280;70701;44.452;18.652;2023-12-29T01:17:40;99772.56;;;-0.21;90.93
81230;BME280;70701;44.452;18.652;2023-12-29T01:20:06;99770.53;;;-0.24;91.22
81230;BME280;70701;44.452;18.652;2023-12-29T01:22:32;99778.75;;;-0.24;92.07
81230;BME280;70701;44.452;18.652;2023-12-29T01:25:01;99782.28;;;-0.24;90.92
81230;BME280;70701;44.452;18.652;2023-12-29T01:27:27;99778.19;;;-0.30;90.81
81230;BME280;70701;44.452;18.652;2023-12-29T01:29:52;99779.09;;;-0.38;90.81
81230;BME280;70701;44.452;18.652;2023-12-29T01:32:22;99770.78;;;-0.42;91.35
81230;BME280;70701;44.452;18.652;2023-12-29T01:34:48;99764.63;;;-0.51;91.65
81230;BME280;70701;44.452;18.652;2023-12-29T01:37:13;99770.81;;;-0.54;91.63
81230;BME280;70701;44.452;18.652;2023-12-29T01:39:39;99771.84;;;-0.59;92.26
81230;BME280;70701;44.452;18.652;2023-12-29T01:42:06;99760.09;;;-0.59;92.57
81230;BME280;70701;44.452;18.652;2023-12-29T01:44:32;99752.09;;;-0.52;92.63
81230;BME280;70701;44.452;18.652;2023-12-29T01:47:02;99750.03;;;-0.43;92.15
81230;BME280;70701;44.452;18.652;2023-12-29T01:49:33;99736.47;;;-0.51;92.15
81230;BME280;70701;44.452;18.652;2023-12-29T01:52:00;99734.91;;;-0.52;92.34
81230;BME280;70701;44.452;18.652;2023-12-29T01:54:32;99730.91;;;-0.55;92.71
81230;BME280;70701;44.452;18.652;2023-12-29T01:57:00;99724.28;;;-0.54;92.64
81230;BME280;70701;44.452;18.652;2023-12-29T01:59:27;99724.97;;;-0.57;91.93
81230;BME280;70701;44.452;18.652;2023-12-29T02:01:54;99727.94;;;-0.50;91.73
81230;BME280;70701;44.452;18.652;2023-12-29T02:04:26;99727.47;;;-0.52;91.06
81230;BME280;70701;44.452;18.652;2023-12-29T02:06:53;99730.34;;;-0.61;91.33
81230;BME280;70701;44.452;18.652;2023-12-29T02:09:18;99732.06;;;-0.68;90.93
81230;BME280;70701;44.452;18.652;2023-12-29T02:11:45;99721.91;;;-0.68;90.44
81230;BME280;70701;44.452;18.652;2023-12-29T02:14:11;99719.28;;;-0.64;90.31
81230;BME280;70701;44.452;18.652;2023-12-29T02:16:50;99723.41;;;-0.83;90.79
81230;BME280;70701;44.452;18.652;2023-12-29T02:19:30;99715.09;;;-0.86;91.61
81230;BME280;70701;44.452;18.652;2023-12-29T02:22:00;99720.09;;;-0.88;90.67
81230;BME280;70701;44.452;18.652;2023-12-29T02:24:26;99711.47;;;-1.03;90.68
81230;BME280;70701;44.452;18.652;2023-12-29T02:26:57;99717.38;;;-1.13;91.49
81230;BME280;70701;44.452;18.652;2023-12-29T02:29:28;99718.28;;;-1.21;90.80
81230;BME280;70701;44.452;18.652;2023-12-29T02:31:58;99735.56;;;-1.42;92.53
81230;BME280;70701;44.452;18.652;2023-12-29T02:34:26;99740.34;;;-1.84;94.54
81230;BME280;70701;44.452;18.652;2023-12-29T02:36:53;99734.06;;;-1.51;95.62
81230;BME280;70701;44.452;18.652;2023-12-29T02:39:20;99736.81;;;-1.51;95.18
81230;BME280;70701;44.452;18.652;2023-12-29T02:41:45;99728.97;;;-1.41;95.21
81230;BME280;70701;44.452;18.652;2023-12-29T02:44:11;99711.91;;;-1.25;95.11
81230;BME280;70701;44.452;18.652;2023-12-29T02:46:37;99722.69;;;-1.53;95.10
81230;BME280;70701;44.452;18.652;2023-12-29T02:49:03;99725.84;;;-1.64;96.26
81230;BME280;70701;44.452;18.652;2023-12-29T02:51:28;99721.28;;;-1.60;96.96
81230;BME280;70701;44.452;18.652;2023-12-29T02:53:54;99723.94;;;-1.51;97.07
81230;BME280;70701;44.452;18.652;2023-12-29T02:56:20;99720.56;;;-1.23;97.68
81230;BME280;70701;44.452;18.652;2023-12-29T02:58:45;99724.66;;;-1.29;97.18
81230;BME280;70701;44.452;18.652;2023-12-29T03:01:13;99726.94;;;-1.31;97.17
81230;BME280;70701;44.452;18.652;2023-12-29T03:03:40;99716.25;;;-1.12;97.70
81230;BME280;70701;44.452;18.652;2023-12-29T03:06:06;99717.91;;;-0.83;96.80
81230;BME280;70701;44.452;18.652;2023-12-29T03:08:32;99721.13;;;-0.81;95.42
81230;BME280;70701;44.452;18.652;2023-12-29T03:10:58;99717.91;;;-0.83;96.78
81230;BME280;70701;44.452;18.652;2023-12-29T03:13:24;99716.34;;;-0.96;95.92
81230;BME280;70701;44.452;18.652;2023-12-29T03:15:50;99719.19;;;-0.80;95.60
81230;BME280;70701;44.452;18.652;2023-12-29T03:18:15;99718.38;;;-0.56;94.43
81230;BME280;70701;44.452;18.652;2023-12-29T03:20:41;99704.81;;;-0.65;94.16
81230;BME280;70701;44.452;18.652;2023-12-29T03:23:07;99704.06;;;-0.49;95.13
81230;BME280;70701;44.452;18.652;2023-12-29T03:25:34;99705.09;;;-0.42;93.94
81230;BME280;70701;44.452;18.652;2023-12-29T03:28:00;99706.94;;;-0.17;94.21
81230;BME280;70701;44.452;18.652;2023-12-29T03:30:26;99691.16;;;-0.36;93.83
81230;BME280;70701;44.452;18.652;2023-12-29T03:32:51;99715.22;;;-0.30;93.33
81230;BME280;70701;44.452;18.652;2023-12-29T03:35:17;99720.94;;;-0.35;93.17
81230;BME280;70701;44.452;18.652;2023-12-29T03:37:43;99735.69;;;-0.52;94.17
81230;BME280;70701;44.452;18.652;2023-12-29T03:40:09;99731.44;;;-0.49;94.24
81230;BME280;70701;44.452;18.652;2023-12-29T03:42:37;99737.97;;;-0.54;94.74
81230;BME280;70701;44.452;18.652;2023-12-29T03:45:03;99753.28;;;-0.65;93.90
81230;BME280;70701;44.452;18.652;2023-12-29T03:47:28;99752.47;;;-1.03;94.51
81230;BME280;70701;44.452;18.652;2023-12-29T03:49:55;99755.72;;;-1.46;96.22
81230;BME280;70701;44.452;18.652;2023-12-29T03:52:22;99754.44;;;-1.61;96.93
81230;BME280;70701;44.452;18.652;2023-12-29T03:54:47;99760.03;;;-1.45;97.37
81230;BME280;70701;44.452;18.652;2023-12-29T03:57:13;99765.44;;;-1.70;97.26
81230;BME280;70701;44.452;18.652;2023-12-29T03:59:39;99773.47;;;-1.52;96.39
81230;BME280;70701;44.452;18.652;2023-12-29T04:02:06;99761.56;;;-1.23;96.51
81230;BME280;70701;44.452;18.652;2023-12-29T04:04:31;99764.53;;;-1.28;94.86
81230;BME280;70701;44.452;18.652;2023-12-29T04:06:57;99752.34;;;-1.31;94.66
81230;BME280;70701;44.452;18.652;2023-12-29T04:09:23;99765.06;;;-1.47;95.63
81230;BME280;70701;44.452;18.652;2023-12-29T04:11:49;99771.38;;;-1.68;96.09
81230;BME280;70701;44.452;18.652;2023-12-29T04:14:15;99766.69;;;-1.67;96.08
81230;BME280;70701;44.452;18.652;2023-12-29T04:16:42;99759.91;;;-1.61;96.34
81230;BME280;70701;44.452;18.652;2023-12-29T04:19:08;99770.56;;;-1.35;95.92
81230;BME280;70701;44.452;18.652;2023-12-29T04:21:34;99777.06;;;-1.27;95.34
81230;BME280;70701;44.452;18.652;2023-12-29T04:23:59;99781.03;;;-1.25;95.15
81230;BME280;70701;44.452;18.652;2023-12-29T04:26:25;99781.31;;;-0.93;94.00
81230;BME280;70701;44.452;18.652;2023-12-29T04:28:51;99784.84;;;-0.80;92.99
81230;BME280;70701;44.452;18.652;2023-12-29T04:31:17;99784.41;;;-0.82;92.42
81230;BME280;70701;44.452;18.652;2023-12-29T04:33:43;99786.00;;;-0.69;92.28
81230;BME280;70701;44.452;18.652;2023-12-29T04:36:08;99793.63;;;-0.74;91.80
81230;BME280;70701;44.452;18.652;2023-12-29T04:38:34;99790.56;;;-0.73;92.20
81230;BME280;70701;44.452;18.652;2023-12-29T04:40:59;99789.53;;;-0.68;92.00
81230;BME280;70701;44.452;18.652;2023-12-29T04:43:26;99780.88;;;-0.58;91.67
81230;BME280;70701;44.452;18.652;2023-12-29T04:45:51;99793.88;;;-0.67;91.89
81230;BME280;70701;44.452;18.652;2023-12-29T04:48:17;99794.31;;;-0.65;91.76
81230;BME280;70701;44.452;18.652;2023-12-29T04:50:43;99784.53;;;-0.79;91.01
81230;BME280;70701;44.452;18.652;2023-12-29T04:53:09;99785.97;;;-0.81;91.57
81230;BME280;70701;44.452;18.652;2023-12-29T04:55:34;99783.13;;;-0.85;91.56
81230;BME280;70701;44.452;18.652;2023-12-29T04:58:00;99777.78;;;-0.81;91.66
81230;BME280;70701;44.452;18.652;2023-12-29T05:00:26;99778.09;;;-0.83;90.81
81230;BME280;70701;44.452;18.652;2023-12-29T05:02:51;99774.38;;;-0.78;90.49
81230;BME280;70701;44.452;18.652;2023-12-29T05:05:17;99776.97;;;-0.82;90.59
81230;BME280;70701;44.452;18.652;2023-12-29T05:07:43;99786.31;;;-0.83;90.70
81230;BME280;70701;44.452;18.652;2023-12-29T05:10:08;99781.31;;;-0.93;90.77
81230;BME280;70701;44.452;18.652;2023-12-29T05:12:34;99778.25;;;-0.91;91.35
81230;BME280;70701;44.452;18.652;2023-12-29T05:15:00;99775.03;;;-0.56;93.63
81230;BME280;70701;44.452;18.652;2023-12-29T05:17:25;99780.06;;;-0.71;90.84
81230;BME280;70701;44.452;18.652;2023-12-29T05:19:51;99780.97;;;-0.79;90.55
81230;BME280;70701;44.452;18.652;2023-12-29T05:22:16;99786.22;;;-0.99;91.13
81230;BME280;70701;44.452;18.652;2023-12-29T05:24:43;99795.44;;;-1.03;93.10
81230;BME280;70701;44.452;18.652;2023-12-29T05:27:10;99794.06;;;-0.85;91.40
81230;BME280;70701;44.452;18.652;2023-12-29T05:29:36;99798.41;;;-0.84;90.59
81230;BME280;70701;44.452;18.652;2023-12-29T05:32:02;99806.53;;;-0.75;89.91
81230;BME280;70701;44.452;18.652;2023-12-29T05:34:28;99802.75;;;-0.70;89.82
81230;BME280;70701;44.452;18.652;2023-12-29T05:36:54;99789.06;;;-0.95;90.14
81230;BME280;70701;44.452;18.652;2023-12-29T05:39:19;99778.22;;;-0.79;90.41
81230;BME280;70701;44.452;18.652;2023-12-29T05:41:45;99786.31;;;-0.83;89.20
81230;BME280;70701;44.452;18.652;2023-12-29T05:44:11;99785.22;;;-0.69;90.78
81230;BME280;70701;44.452;18.652;2023-12-29T05:46:36;99783.81;;;-0.75;89.77
81230;BME280;70701;44.452;18.652;2023-12-29T05:49:02;99781.28;;;-1.05;90.85
81230;BME280;70701;44.452;18.652;2023-12-29T05:51:28;99790.44;;;-0.76;90.37
81230;BME280;70701;44.452;18.652;2023-12-29T05:53:54;99786.44;;;-0.67;90.09
81230;BME280;70701;44.452;18.652;2023-12-29T05:56:20;99780.75;;;-0.74;89.63
81230;BME280;70701;44.452;18.652;2023-12-29T05:58:45;99788.63;;;-0.60;88.93
81230;BME280;70701;44.452;18.652;2023-12-29T06:01:11;99782.44;;;-0.45;88.35
81230;BME280;70701;44.452;18.652;2023-12-29T06:03:37;99778.78;;;-0.73;88.88
81230;BME280;70701;44.452;18.652;2023-12-29T06:06:03;99791.44;;;-0.56;89.45
81230;BME280;70701;44.452;18.652;2023-12-29T06:08:29;99800.22;;;-0.51;89.18
81230;BME280;70701;44.452;18.652;2023-12-29T06:10:55;99793.41;;;-0.57;89.67
81230;BME280;70701;44.452;18.652;2023-12-29T06:13:20;99793.63;;;-0.62;89.46
81230;BME280;70701;44.452;18.652;2023-12-29T06:15:46;99780.88;;;-0.58;89.12
81230;BME280;70701;44.452;18.652;2023-12-29T06:18:12;99783.81;;;-0.51;89.12
81230;BME280;70701;44.452;18.652;2023-12-29T06:20:37;99793.06;;;-0.55;88.45
81230;BME280;70701;44.452;18.652;2023-12-29T06:23:05;99759.97;;;-0.63;89.75
81230;BME280;70701;44.452;18.652;2023-12-29T06:25:31;99774.22;;;-0.45;88.66
81230;BME280;70701;44.452;18.652;2023-12-29T06:27:58;99763.41;;;-0.41;87.93
81230;BME280;70701;44.452;18.652;2023-12-29T06:30:23;99767.59;;;-0.44;89.02
81230;BME280;70701;44.452;18.652;2023-12-29T06:32:49;99769.78;;;-0.37;88.46
81230;BME280;70701;44.452;18.652;2023-12-29T06:35:17;99755.59;;;-0.27;88.28
81230;BME280;70701;44.452;18.652;2023-12-29T06:37:43;99771.13;;;-0.31;89.22
81230;BME280;70701;44.452;18.652;2023-12-29T06:40:08;99775.06;;;-0.16;88.46
81230;BME280;70701;44.452;18.652;2023-12-29T06:42:34;99778.47;;;-0.07;88.07
81230;BME280;70701;44.452;18.652;2023-12-29T06:45:00;99771.75;;;-0.09;88.49
81230;BME280;70701;44.452;18.652;2023-12-29T06:47:26;99776.63;;;-0.03;87.96
81230;BME280;70701;44.452;18.652;2023-12-29T06:49:52;99776.88;;;-0.08;88.58
81230;BME280;70701;44.452;18.652;2023-12-29T06:52:18;99775.75;;;-0.07;88.56
81230;BME280;70701;44.452;18.652;2023-12-29T06:54:43;99781.91;;;-0.10;87.85
81230;BME280;70701;44.452;18.652;2023-12-29T06:57:09;99782.34;;;-0.08;88.81
81230;BME280;70701;44.452;18.652;2023-12-29T06:59:34;99779.44;;;-0.15;88.78
81230;BME280;70701;44.452;18.652;2023-12-29T07:02:00;99773.44;;;-0.05;89.39
81230;BME280;70701;44.452;18.652;2023-12-29T07:04:26;99769.25;;;-0.14;88.71
81230;BME280;70701;44.452;18.652;2023-12-29T07:06:51;99770.06;;;-0.14;88.85
81230;BME280;70701;44.452;18.652;2023-12-29T07:09:17;99764.84;;;-0.31;89.68
81230;BME280;70701;44.452;18.652;2023-12-29T07:11:47;99775.50;;;-0.54;92.60
81230;BME280;70701;44.452;18.652;2023-12-29T07:14:14;99780.75;;;-0.62;92.32
81230;BME280;70701;44.452;18.652;2023-12-29T07:16:43;99782.41;;;-0.20;91.82
81230;BME280;70701;44.452;18.652;2023-12-29T07:19:09;99778.03;;;-0.09;90.85
81230;BME280;70701;44.452;18.652;2023-12-29T07:21:35;99774.53;;;-0.22;90.93
81230;BME280;70701;44.452;18.652;2023-12-29T07:24:01;99765.22;;;-0.05;90.92
81230;BME280;70701;44.452;18.652;2023-12-29T07:26:27;99765.03;;;-0.12;90.99
81230;BME280;70701;44.452;18.652;2023-12-29T07:28:53;99766.72;;;-0.07;92.11
81230;BME280;70701;44.452;18.652;2023-12-29T07:31:20;99759.84;;;-0.01;91.82
81230;BME280;70701;44.452;18.652;2023-12-29T07:33:46;99756.97;;;-0.33;92.44
81230;BME280;70701;44.452;18.652;2023-12-29T07:36:13;99751.97;;;-0.03;91.70
81230;BME280;70701;44.452;18.652;2023-12-29T07:38:38;99744.09;;;0.24;91.12
81230;BME280;70701;44.452;18.652;2023-12-29T07:41:04;99753.97;;;0.41;90.33
81230;BME280;70701;44.452;18.652;2023-12-29T07:43:31;99744.38;;;0.19;90.11
81230;BME280;70701;44.452;18.652;2023-12-29T07:45:58;99748.91;;;0.27;90.43
81230;BME280;70701;44.452;18.652;2023-12-29T07:48:24;99747.78;;;0.44;90.29
81230;BME280;70701;44.452;18.652;2023-12-29T07:50:49;99752.59;;;0.19;89.77
81230;BME280;70701;44.452;18.652;2023-12-29T07:53:15;99740.22;;;0.25;91.48
81230;BME280;70701;44.452;18.652;2023-12-29T07:55:42;99734.41;;;0.43;90.33
81230;BME280;70701;44.452;18.652;2023-12-29T07:58:09;99730.09;;;0.42;90.14
81230;BME280;70701;44.452;18.652;2023-12-29T08:00:36;99729.19;;;0.37;90.01
81230;BME280;70701;44.452;18.652;2023-12-29T08:03:02;99726.03;;;0.51;90.06
81230;BME280;70701;44.452;18.652;2023-12-29T08:05:28;99727.81;;;0.60;89.61
81230;BME280;70701;44.452;18.652;2023-12-29T08:07:54;99734.19;;;0.64;89.11
81230;BME280;70701;44.452;18.652;2023-12-29T08:10:20;99727.31;;;0.70;89.51
81230;BME280;70701;44.452;18.652;2023-12-29T08:12:46;99729.50;;;0.80;88.73
81230;BME280;70701;44.452;18.652;2023-12-29T08:15:11;99736.59;;;0.81;88.92
81230;BME280;70701;44.452;18.652;2023-12-29T08:17:37;99729.06;;;0.78;88.91
81230;BME280;70701;44.452;18.652;2023-12-29T08:20:04;99742.69;;;0.74;90.06
81230;BME280;70701;44.452;18.652;2023-12-29T08:22:30;99745.97;;;0.96;88.61
81230;BME280;70701;44.452;18.652;2023-12-29T08:24:58;99744.63;;;1.06;88.97
81230;BME280;70701;44.452;18.652;2023-12-29T08:27:25;99734.28;;;1.15;88.43
81230;BME280;70701;44.452;18.652;2023-12-29T08:29:51;99741.25;;;1.12;88.35
81230;BME280;70701;44.452;18.652;2023-12-29T08:32:17;99737.72;;;1.12;87.77
81230;BME280;70701;44.452;18.652;2023-12-29T08:34:43;99734.09;;;1.08;88.38
81230;BME280;70701;44.452;18.652;2023-12-29T08:37:08;99738.41;;;1.25;88.65
81230;BME280;70701;44.452;18.652;2023-12-29T08:39:35;99739.28;;;1.29;88.09
81230;BME280;70701;44.452;18.652;2023-12-29T08:42:01;99738.06;;;1.26;87.98
81230;BME280;70701;44.452;18.652;2023-12-29T08:44:27;99737.81;;;1.31;89.00
81230;BME280;70701;44.452;18.652;2023-12-29T08:46:52;99743.63;;;1.30;88.86
81230;BME280;70701;44.452;18.652;2023-12-29T08:49:18;99736.91;;;1.27;89.10
81230;BME280;70701;44.452;18.652;2023-12-29T08:51:44;99746.84;;;1.51;89.06
81230;BME280;70701;44.452;18.652;2023-12-29T08:54:10;99747.69;;;1.36;89.86
81230;BME280;70701;44.452;18.652;2023-12-29T08:56:35;99746.06;;;1.51;89.18
81230;BME280;70701;44.452;18.652;2023-12-29T08:59:01;99745.56;;;1.65;88.86
81230;BME280;70701;44.452;18.652;2023-12-29T09:01:26;99750.00;;;1.69;89.55
81230;BME280;70701;44.452;18.652;2023-12-29T09:03:52;99753.88;;;1.84;89.77
81230;BME280;70701;44.452;18.652;2023-12-29T09:06:18;99735.66;;;1.96;89.39
81230;BME280;70701;44.452;18.652;2023-12-29T09:08:44;99744.38;;;1.82;90.55
81230;BME280;70701;44.452;18.652;2023-12-29T09:11:10;99742.50;;;1.86;92.16
81230;BME280;70701;44.452;18.652;2023-12-29T09:13:35;99745.16;;;2.21;90.56
81230;BME280;70701;44.452;18.652;2023-12-29T09:16:01;99729.22;;;2.50;88.36
81230;BME280;70701;44.452;18.652;2023-12-29T09:18:27;99735.34;;;2.63;88.04
81230;BME280;70701;44.452;18.652;2023-12-29T09:20:52;99734.88;;;2.80;87.13
81230;BME280;70701;44.452;18.652;2023-12-29T09:23:18;99739.88;;;2.75;89.25
81230;BME280;70701;44.452;18.652;2023-12-29T09:25:44;99741.41;;;2.95;88.70
81230;BME280;70701;44.452;18.652;2023-12-29T09:28:09;99737.97;;;3.02;88.02
81230;BME280;70701;44.452;18.652;2023-12-29T09:30:35;99738.50;;;3.11;87.37
81230;BME280;70701;44.452;18.652;2023-12-29T09:33:01;99726.88;;;2.98;88.90
81230;BME280;70701;44.452;18.652;2023-12-29T09:35:28;99718.97;;;3.20;88.34
81230;BME280;70701;44.452;18.652;2023-12-29T09:37:53;99710.47;;;3.28;87.46
81230;BME280;70701;44.452;18.652;2023-12-29T09:40:19;99725.81;;;3.29;88.28
81230;BME280;70701;44.452;18.652;2023-12-29T09:42:47;99718.63;;;3.21;88.10
81230;BME280;70701;44.452;18.652;2023-12-29T09:45:13;99717.31;;;3.15;88.79
81230;BME280;70701;44.452;18.652;2023-12-29T09:47:41;99712.22;;;3.17;89.37
81230;BME280;70701;44.452;18.652;2023-12-29T09:50:10;99710.34;;;3.21;88.94
81230;BME280;70701;44.452;18.652;2023-12-29T09:52:38;99709.69;;;3.31;88.17
81230;BME280;70701;44.452;18.652;2023-12-29T09:55:09;99702.44;;;3.46;87.91
81230;BME280;70701;44.452;18.652;2023-12-29T09:57:38;99701.72;;;3.49;87.80
81230;BME280;70701;44.452;18.652;2023-12-29T10:00:05;99700.22;;;3.56;87.65
81230;BME280;70701;44.452;18.652;2023-12-29T10:02:36;99702.28;;;3.36;88.83
81230;BME280;70701;44.452;18.652;2023-12-29T10:05:03;99700.19;;;3.25;89.74
81230;BME280;70701;44.452;18.652;2023-12-29T10:07:32;99703.88;;;3.37;88.80
81230;BME280;70701;44.452;18.652;2023-12-29T10:10:01;99703.41;;;3.31;89.48
81230;BME280;70701;44.452;18.652;2023-12-29T10:12:28;99692.63;;;3.49;88.79
81230;BME280;70701;44.452;18.652;2023-12-29T10:17:52;99677.97;;;3.41;88.77
81230;BME280;70701;44.452;18.652;2023-12-29T10:23:41;99671.09;;;3.28;90.93
81230;BME280;70701;44.452;18.652;2023-12-29T10:26:10;99660.09;;;3.28;91.70
81230;BME280;70701;44.452;18.652;2023-12-29T10:28:36;99662.25;;;3.42;91.18
81230;BME280;70701;44.452;18.652;2023-12-29T10:31:04;99657.00;;;3.33;91.45
81230;BME280;70701;44.452;18.652;2023-12-29T10:33:30;99640.75;;;3.55;91.12
81230;BME280;70701;44.452;18.652;2023-12-29T10:36:01;99651.19;;;3.68;90.03
81230;BME280;70701;44.452;18.652;2023-12-29T10:38:29;99653.78;;;3.58;90.36
81230;BME280;70701;44.452;18.652;2023-12-29T10:41:13;99641.03;;;3.76;90.25
81230;BME280;70701;44.452;18.652;2023-12-29T10:43:40;99637.81;;;3.70;90.26
81230;BME280;70701;44.452;18.652;2023-12-29T10:46:07;99644.19;;;3.78;90.75
81230;BME280;70701;44.452;18.652;2023-12-29T10:48:37;99638.44;;;3.57;91.93
81230;BME280;70701;44.452;18.652;2023-12-29T10:51:03;99631.25;;;3.82;91.71
81230;BME280;70701;44.452;18.652;2023-12-29T10:53:30;99619.94;;;3.91;90.44
81230;BME280;70701;44.452;18.652;2023-12-29T10:55:56;99614.09;;;3.96;90.60
81230;BME280;70701;44.452;18.652;2023-12-29T10:58:27;99604.00;;;4.15;89.57
81230;BME280;70701;44.452;18.652;2023-12-29T11:00:58;99604.44;;;4.17;90.40
81230;BME280;70701;44.452;18.652;2023-12-29T11:03:25;99591.59;;;4.35;89.70
81230;BME280;70701;44.452;18.652;2023-12-29T11:05:58;99575.22;;;4.57;88.71
81230;BME280;70701;44.452;18.652;2023-12-29T11:08:26;99582.03;;;4.70;88.16
81230;BME280;70701;44.452;18.652;2023-12-29T11:10:54;99581.63;;;4.68;88.17
81230;BME280;70701;44.452;18.652;2023-12-29T11:13:20;99577.16;;;4.53;88.40
81230;BME280;70701;44.452;18.652;2023-12-29T11:15:46;99579.16;;;4.59;88.60
81230;BME280;70701;44.452;18.652;2023-12-29T11:18:16;99578.06;;;4.67;87.82
81230;BME280;70701;44.452;18.652;2023-12-29T11:20:44;99574.91;;;4.69;87.64
81230;BME280;70701;44.452;18.652;2023-12-29T11:23:10;99576.41;;;4.59;87.90
81230;BME280;70701;44.452;18.652;2023-12-29T11:25:39;99577.88;;;4.46;88.37
81230;BME280;70701;44.452;18.652;2023-12-29T11:28:10;99577.44;;;4.40;88.79
81230;BME280;70701;44.452;18.652;2023-12-29T11:30:39;99571.25;;;4.54;88.74
81230;BME280;70701;44.452;18.652;2023-12-29T11:33:21;99565.25;;;4.41;89.82
81230;BME280;70701;44.452;18.652;2023-12-29T11:36:02;99557.09;;;4.59;88.75
81230;BME280;70701;44.452;18.652;2023-12-29T11:41:25;99550.91;;;4.80;88.27
81230;BME280;70701;44.452;18.652;2023-12-29T11:44:00;99549.00;;;4.84;87.88
81230;BME280;70701;44.452;18.652;2023-12-29T11:49:00;99550.22;;;4.91;87.99
81230;BME280;70701;44.452;18.652;2023-12-29T11:51:38;99558.03;;;4.81;88.68
81230;BME280;70701;44.452;18.652;2023-12-29T11:54:05;99541.53;;;6.05;98.48
81230;BME280;70701;44.452;18.652;2023-12-29T11:56:37;99545.47;;;6.04;97.52
81230;BME280;70701;44.452;18.652;2023-12-29T11:59:18;99540.25;;;5.70;91.43
81230;BME280;70701;44.452;18.652;2023-12-29T12:01:47;99541.94;;;6.47;94.48
81230;BME280;70701;44.452;18.652;2023-12-29T12:04:42;99541.56;;;6.52;92.19
81230;BME280;70701;44.452;18.652;2023-12-29T12:10:36;99536.81;;;6.13;89.25
81230;BME280;70701;44.452;18.652;2023-12-29T12:12:43;99541.56;;;6.48;87.25
81230;BME280;70701;44.452;18.652;2023-12-29T12:18:03;99538.78;;;6.45;85.09
81230;BME280;70701;44.452;18.652;2023-12-29T12:20:32;99530.81;;;5.85;84.96
81230;BME280;70701;44.452;18.652;2023-12-29T12:22:59;99526.84;;;5.83;87.16
81230;BME280;70701;44.452;18.652;2023-12-29T12:25:29;99528.78;;;5.50;88.02
81230;BME280;70701;44.452;18.652;2023-12-29T12:27:57;99521.59;;;5.38;88.37
81230;BME280;70701;44.452;18.652;2023-12-29T12:30:23;99516.91;;;5.50;87.64
81230;BME280;70701;44.452;18.652;2023-12-29T12:33:00;99524.81;;;5.55;87.67
81230;BME280;70701;44.452;18.652;2023-12-29T12:35:26;99516.94;;;5.60;87.52
81230;BME280;70701;44.452;18.652;2023-12-29T12:40:33;99515.75;;;5.69;87.50
81230;BME280;70701;44.452;18.652;2023-12-29T12:42:59;99508.28;;;5.73;87.24
81230;BME280;70701;44.452;18.652;2023-12-29T12:45:26;99505.94;;;5.78;86.54
81230;BME280;70701;44.452;18.652;2023-12-29T12:48:12;99509.88;;;5.77;86.76
81230;BME280;70701;44.452;18.652;2023-12-29T12:50:46;99506.31;;;5.80;86.80
81230;BME280;70701;44.452;18.652;2023-12-29T12:53:13;99496.06;;;5.81;87.35
81230;BME280;70701;44.452;18.652;2023-12-29T12:55:47;99508.31;;;5.94;86.82
81230;BME280;70701;44.452;18.652;2023-12-29T12:58:16;99509.91;;;5.92;86.50
81230;BME280;70701;44.452;18.652;2023-12-29T13:00:42;99507.53;;;5.94;86.34
81230;BME280;70701;44.452;18.652;2023-12-29T13:03:08;99502.44;;;5.99;86.50
81230;BME280;70701;44.452;18.652;2023-12-29T13:05:36;99505.19;;;6.03;86.25
81230;BME280;70701;44.452;18.652;2023-12-29T13:08:02;99501.22;;;6.04;86.79
81230;BME280;70701;44.452;18.652;2023-12-29T13:10:29;99498.47;;;6.04;87.79
81230;BME280;70701;44.452;18.652;2023-12-29T13:12:55;99494.13;;;6.10;87.72
81230;BME280;70701;44.452;18.652;2023-12-29T13:15:21;99479.91;;;6.08;87.04